Time;durP1;ratioP1;P1;durP2;ratioP2;P2;SDS_P1;SDS_P2;PMS_P1;PMS_P2;Temp;Humidity;BMP_temperature;BMP_pressure;BME280_temperature;BME280_humidity;BME280_pressure;Samples;Min_cycle;Max_cycle;Signal;HPM_P1;HPM_P2
2023/12/01 00:02:03;;;;;;;96.60;22.05;;;;;;;-1.51;100.00;100560.31;5114651;28;20030;-82
2023/12/01 00:04:28;;;;;;;115.18;21.67;;;;;;;-1.54;100.00;100565.66;5114120;28;20038;-81
2023/12/01 00:06:54;;;;;;;120.50;22.77;;;;;;;-1.57;100.00;100565.81;5095610;28;20035;-82
2023/12/01 00:09:19;;;;;;;89.82;23.08;;;;;;;-1.59;100.00;100568.50;5092060;28;20050;-81
2023/12/01 00:11:45;;;;;;;128.82;21.33;;;;;;;-1.65;100.00;100572.22;5093549;28;20028;-82
2023/12/01 00:14:10;;;;;;;84.53;20.27;;;;;;;-1.73;100.00;100574.31;5093302;28;20035;-82
2023/12/01 00:16:36;;;;;;;56.30;18.90;;;;;;;-1.75;100.00;100581.34;5093713;28;20020;-82
2023/12/01 00:19:01;;;;;;;72.68;20.75;;;;;;;-1.78;100.00;100582.34;5092501;28;20401;-82
2023/12/01 00:21:26;;;;;;;155.98;22.42;;;;;;;-1.88;100.00;100588.88;5093214;28;20455;-82
2023/12/01 00:23:52;;;;;;;96.15;22.17;;;;;;;-1.93;100.00;100585.59;5093247;28;20042;-82
2023/12/01 00:26:17;;;;;;;69.13;22.48;;;;;;;-1.96;100.00;100578.78;5093075;28;20111;-82
2023/12/01 00:28:42;;;;;;;85.25;23.27;;;;;;;-1.99;100.00;100583.25;5093522;28;20050;-81
2023/12/01 00:31:08;;;;;;;69.30;23.27;;;;;;;-2.04;100.00;100587.84;5093408;28;20341;-82
2023/12/01 00:33:33;;;;;;;144.60;26.45;;;;;;;-2.09;100.00;100589.75;5093001;28;20032;-82
2023/12/01 00:36:00;;;;;;;80.43;22.85;;;;;;;-2.10;100.00;100601.97;5093363;28;20024;-81
2023/12/01 00:38:25;;;;;;;91.93;23.67;;;;;;;-2.10;100.00;100601.13;5092867;28;20032;-81
2023/12/01 00:40:51;;;;;;;80.07;22.67;;;;;;;-2.10;100.00;100607.19;5093140;28;20375;-82
2023/12/01 00:43:16;;;;;;;93.47;23.42;;;;;;;-2.08;100.00;100601.91;5092465;28;20068;-83
2023/12/01 00:45:41;;;;;;;89.72;24.38;;;;;;;-2.10;100.00;100608.94;5091866;28;20016;-82
2023/12/01 00:48:07;;;;;;;127.30;28.70;;;;;;;-2.09;100.00;100610.63;5092937;28;20149;-82
2023/12/01 00:50:32;;;;;;;102.50;26.70;;;;;;;-2.09;100.00;100613.22;5092577;28;20537;-82
2023/12/01 00:52:57;;;;;;;91.05;24.77;;;;;;;-2.08;100.00;100617.53;5092119;28;20028;-82
2023/12/01 00:55:23;;;;;;;95.13;25.25;;;;;;;-2.09;100.00;100624.53;5092506;28;20360;-82
2023/12/01 00:57:53;;;;;;;102.43;24.98;;;;;;;-2.14;100.00;100629.06;5091416;28;20031;-83
2023/12/01 01:00:19;;;;;;;110.22;26.52;;;;;;;-2.17;100.00;100622.22;5092402;28;20059;-82
2023/12/01 01:02:44;;;;;;;82.85;26.15;;;;;;;-2.17;100.00;100629.19;5092855;28;20169;-82
2023/12/01 01:05:10;;;;;;;78.93;25.10;;;;;;;-2.17;100.00;100626.59;5092727;28;20452;-82
2023/12/01 01:07:35;;;;;;;92.88;26.75;;;;;;;-2.15;100.00;100629.97;5090652;28;20116;-83
2023/12/01 01:10:00;;;;;;;105.72;26.85;;;;;;;-2.19;100.00;100631.03;5108674;28;20347;-83
2023/12/01 01:12:26;;;;;;;107.80;25.83;;;;;;;-2.23;100.00;100635.50;5112520;28;20456;-83
2023/12/01 01:14:51;;;;;;;102.05;26.15;;;;;;;-2.23;100.00;100642.47;5113989;28;20030;-82
2023/12/01 01:17:16;;;;;;;93.78;26.55;;;;;;;-2.27;100.00;100636.53;5112516;28;20035;-84
2023/12/01 01:19:43;;;;;;;106.32;26.75;;;;;;;-2.31;100.00;100638.41;5113089;28;20412;-83
2023/12/01 01:22:08;;;;;;;100.43;27.60;;;;;;;-2.29;100.00;100632.31;5077832;28;20375;-82
2023/12/01 01:24:33;;;;;;;105.07;27.25;;;;;;;-2.26;100.00;100646.06;5112196;28;20027;-83
2023/12/01 01:26:59;;;;;;;108.50;27.08;;;;;;;-2.28;100.00;100642.66;5112490;28;20038;-83
2023/12/01 01:29:24;;;;;;;103.32;27.85;;;;;;;-2.29;100.00;100643.56;5112442;28;20020;-83
2023/12/01 01:31:50;;;;;;;130.50;27.67;;;;;;;-2.33;100.00;100648.06;5114091;28;20520;-84
2023/12/01 01:34:15;;;;;;;101.20;26.70;;;;;;;-2.33;100.00;100644.59;5117373;28;20454;-82
2023/12/01 01:36:44;;;;;;;117.75;24.27;;;;;;;-2.37;100.00;100654.31;5115756;28;20432;-83
2023/12/01 01:39:10;;;;;;;84.88;23.80;;;;;;;-2.39;100.00;100655.28;5117664;28;20031;-84
2023/12/01 01:41:35;;;;;;;96.03;22.52;;;;;;;-2.38;100.00;100664.78;5116658;28;20038;-83
2023/12/01 01:44:01;;;;;;;99.68;22.42;;;;;;;-2.40;100.00;100670.06;5121397;28;20102;-82
2023/12/01 01:46:26;;;;;;;101.13;23.48;;;;;;;-2.50;100.00;100663.50;5100163;28;20028;-82
2023/12/01 01:48:52;;;;;;;92.90;22.50;;;;;;;-2.55;100.00;100666.31;5112128;28;20081;-82
2023/12/01 01:51:19;;;;;;;89.35;23.60;;;;;;;-2.57;100.00;100669.88;5093685;28;20451;-82
2023/12/01 01:53:44;;;;;;;118.47;22.73;;;;;;;-2.60;100.00;100675.19;5111656;28;20028;-82
2023/12/01 01:56:14;;;;;;;105.88;23.63;;;;;;;-2.60;100.00;100672.59;5111984;28;20089;-82
2023/12/01 01:58:41;;;;;;;88.40;22.70;;;;;;;-2.60;100.00;100673.44;5111708;28;20088;-82
2023/12/01 02:01:07;;;;;;;97.00;24.75;;;;;;;-2.59;100.00;100671.69;5111905;28;20038;-81
2023/12/01 02:03:33;;;;;;;115.78;23.80;;;;;;;-2.64;100.00;100666.66;5111788;28;20090;-82
2023/12/01 02:05:59;;;;;;;102.38;23.73;;;;;;;-2.60;100.00;100675.19;5112328;28;20024;-82
2023/12/01 02:08:26;;;;;;;91.70;24.23;;;;;;;-2.58;100.00;100674.25;5110950;28;20043;-83
2023/12/01 02:10:57;;;;;;;98.50;24.98;;;;;;;-2.59;100.00;100671.69;5112276;28;20048;-81
2023/12/01 02:13:23;;;;;;;93.32;22.88;;;;;;;-2.57;100.00;100669.88;5112260;28;20031;-81
2023/12/01 02:15:50;;;;;;;106.55;23.17;;;;;;;-2.56;100.00;100669.81;5112068;28;20110;-81
2023/12/01 02:18:31;;;;;;;86.10;21.90;;;;;;;-2.54;100.00;100675.81;5093520;28;20057;-81
2023/12/01 02:20:57;;;;;;;97.93;22.27;;;;;;;-2.54;100.00;100675.81;5111901;28;20032;-81
2023/12/01 02:23:24;;;;;;;96.95;23.30;;;;;;;-2.56;100.00;100675.00;5111950;28;20138;-80
2023/12/01 02:25:50;;;;;;;84.80;21.92;;;;;;;-2.54;100.00;100673.22;5111616;28;20031;-81
2023/12/01 02:28:16;;;;;;;89.03;24.27;;;;;;;-2.50;100.00;100673.94;5111485;28;20102;-80
2023/12/01 02:30:43;;;;;;;89.82;23.05;;;;;;;-2.47;100.00;100683.41;5111334;28;20326;-81
2023/12/01 02:33:15;;;;;;;88.85;23.95;;;;;;;-2.46;100.00;100682.47;5111929;28;20024;-81
2023/12/01 02:35:48;;;;;;;95.47;23.48;;;;;;;-2.49;100.00;100686.91;5111372;28;20063;-80
2023/12/01 02:38:14;;;;;;;105.22;24.50;;;;;;;-2.47;100.00;100684.25;5093377;28;20027;-80
2023/12/01 02:40:42;;;;;;;95.85;22.70;;;;;;;-2.45;100.00;100685.03;5111205;28;20213;-81
2023/12/01 02:43:13;;;;;;;91.75;24.15;;;;;;;-2.45;100.00;100690.22;5111584;28;20171;-80
2023/12/01 02:45:39;;;;;;;95.43;22.30;;;;;;;-2.46;100.00;100690.28;5093108;28;20023;-80
2023/12/01 02:48:05;;;;;;;101.63;25.27;;;;;;;-2.50;100.00;100687.81;5111506;28;20024;-80
2023/12/01 02:50:31;;;;;;;105.10;24.10;;;;;;;-2.52;100.00;100689.63;5111172;28;20106;-81
2023/12/01 02:52:57;;;;;;;100.30;24.95;;;;;;;-2.53;100.00;100687.09;5111661;28;20516;-81
2023/12/01 02:55:22;;;;;;;99.45;24.20;;;;;;;-2.58;100.00;100695.09;5111378;28;20075;-80
2023/12/01 02:57:48;;;;;;;100.28;23.30;;;;;;;-2.61;100.00;100684.78;5111057;28;20312;-80
2023/12/01 03:00:14;;;;;;;88.68;23.83;;;;;;;-2.62;100.00;100685.69;5111710;28;20024;-80
2023/12/01 03:02:43;;;;;;;87.72;22.58;;;;;;;-2.59;100.00;100688.16;5111202;28;20024;-81
2023/12/01 03:05:10;;;;;;;88.38;23.23;;;;;;;-2.59;100.00;100689.94;5111331;28;20119;-80
2023/12/01 03:07:36;;;;;;;86.55;22.42;;;;;;;-2.55;100.00;100686.31;5111281;28;20019;-81
2023/12/01 03:10:02;;;;;;;89.30;24.00;;;;;;;-2.55;100.00;100689.75;5111101;28;20452;-80
2023/12/01 03:12:28;;;;;;;92.90;21.88;;;;;;;-2.55;100.00;100691.53;5111601;28;20031;-80
2023/12/01 03:14:53;;;;;;;92.63;22.60;;;;;;;-2.56;100.00;100682.00;5111819;28;20068;-81
2023/12/01 03:17:18;;;;;;;89.50;21.30;;;;;;;-2.55;100.00;100686.31;5115209;28;20394;-80
2023/12/01 03:19:46;;;;;;;93.78;20.50;;;;;;;-2.56;100.00;100685.44;5115039;28;20035;-81
2023/12/01 03:22:12;;;;;;;80.65;19.75;;;;;;;-2.54;100.00;100686.25;5115339;28;20035;-80
2023/12/01 03:24:38;;;;;;;80.20;19.92;;;;;;;-2.52;100.00;100684.41;5115019;28;20031;-80
2023/12/01 03:27:04;;;;;;;93.93;21.73;;;;;;;-2.50;100.00;100687.81;5096629;28;20038;-80
2023/12/01 03:29:32;;;;;;;70.07;20.35;;;;;;;-2.53;100.00;100697.50;5114918;28;20110;-79
2023/12/01 03:31:58;;;;;;;82.10;19.67;;;;;;;-2.59;100.00;100701.19;5097197;28;20458;-80
2023/12/01 03:34:23;;;;;;;76.95;18.77;;;;;;;-2.59;100.00;100695.97;5114658;28;20028;-80
2023/12/01 03:36:49;;;;;;;61.22;17.52;;;;;;;-2.56;100.00;100700.22;5114371;28;20139;-80
2023/12/01 03:39:14;;;;;;;62.40;15.48;;;;;;;-2.60;100.00;100706.47;5114837;28;20023;-80
2023/12/01 03:41:40;;;;;;;51.00;14.18;;;;;;;-2.67;100.00;100698.03;5114507;28;20028;-80
2023/12/01 03:44:05;;;;;;;54.63;15.15;;;;;;;-2.71;100.00;100705.09;5114651;28;20032;-80
2023/12/01 03:46:30;;;;;;;66.57;15.55;;;;;;;-2.75;100.00;100703.50;5114402;28;20039;-79
2023/12/01 03:48:56;;;;;;;53.50;15.52;;;;;;;-2.78;100.00;100711.44;5114206;28;20032;-80
2023/12/01 03:51:21;;;;;;;62.17;15.63;;;;;;;-2.81;100.00;100708.94;5114603;28;20027;-79
2023/12/01 03:53:46;;;;;;;71.60;16.02;;;;;;;-2.81;100.00;100714.16;5114207;28;20043;-80
2023/12/01 03:56:12;;;;;;;62.35;17.08;;;;;;;-2.80;100.00;100715.03;5114510;28;20352;-80
2023/12/01 03:58:37;;;;;;;59.15;15.95;;;;;;;-2.82;100.00;100715.09;5095738;28;20170;-80
2023/12/01 04:01:05;;;;;;;58.50;15.48;;;;;;;-2.77;100.00;100725.34;5114389;28;20030;-79
2023/12/01 04:03:31;;;;;;;79.18;18.25;;;;;;;-2.72;100.00;100729.44;5114175;28;20532;-80
2023/12/01 04:06:01;;;;;;;76.68;18.05;;;;;;;-2.70;100.00;100727.66;5113881;28;20031;-80
2023/12/01 04:08:27;;;;;;;75.60;18.67;;;;;;;-2.70;100.00;100726.81;5113950;28;20056;-80
2023/12/01 04:10:52;;;;;;;82.28;19.50;;;;;;;-2.67;100.00;100729.31;5113966;28;20085;-80
2023/12/01 04:13:19;;;;;;;85.10;19.40;;;;;;;-2.63;100.00;100737.84;5114175;28;20031;-80
2023/12/01 04:15:44;;;;;;;85.45;19.40;;;;;;;-2.65;100.00;100740.50;5113212;28;20452;-80
2023/12/01 04:18:11;;;;;;;80.25;19.50;;;;;;;-2.66;100.00;100742.28;5113941;28;20023;-80
2023/12/01 04:20:38;;;;;;;74.55;19.00;;;;;;;-2.64;100.00;100747.41;5113753;28;20035;-80
2023/12/01 04:23:11;;;;;;;70.65;19.55;;;;;;;-2.66;100.00;100738.78;5113746;28;20365;-80
2023/12/01 04:25:40;;;;;;;71.38;18.55;;;;;;;-2.68;100.00;100738.84;5113983;28;20448;-80
2023/12/01 04:28:06;;;;;;;63.72;17.63;;;;;;;-2.65;100.00;100750.91;5113724;28;20443;-80
2023/12/01 04:30:34;;;;;;;81.07;20.10;;;;;;;-2.65;100.00;100750.91;5113487;28;20039;-80
2023/12/01 04:33:00;;;;;;;73.35;20.77;;;;;;;-2.64;100.00;100744.81;5113008;28;20385;-80
2023/12/01 04:35:29;;;;;;;69.47;18.75;;;;;;;-2.60;100.00;100748.16;5113762;28;20024;-80
2023/12/01 04:37:55;;;;;;;65.15;17.80;;;;;;;-2.60;100.00;100751.59;5112817;28;20420;-79
2023/12/01 04:40:21;;;;;;;61.63;16.48;;;;;;;-2.60;100.00;100751.59;5113158;28;20047;-79
2023/12/01 04:42:48;;;;;;;64.30;17.13;;;;;;;-2.60;100.00;100750.75;5113179;28;20027;-80
2023/12/01 04:45:16;;;;;;;67.95;18.08;;;;;;;-2.59;100.00;100758.50;5113519;28;20027;-81
2023/12/01 04:47:42;;;;;;;61.08;17.52;;;;;;;-2.59;100.00;100768.94;5112943;28;20429;-80
2023/12/01 04:50:13;;;;;;;63.45;17.52;;;;;;;-2.55;100.00;100765.31;5113562;28;20055;-81
2023/12/01 04:52:43;;;;;;;73.15;18.77;;;;;;;-2.51;100.00;100768.63;5113432;28;20032;-79
2023/12/01 04:55:13;;;;;;;60.42;16.33;;;;;;;-2.52;100.00;100773.00;5113197;28;20019;-80
2023/12/01 04:57:42;;;;;;;58.25;15.75;;;;;;;-2.44;100.00;100774.50;5113403;28;20023;-79
2023/12/01 05:00:19;;;;;;;70.00;17.42;;;;;;;-2.39;100.00;100785.56;5112969;28;20046;-80
2023/12/01 05:03:06;;;;;;;66.85;18.80;;;;;;;-2.35;100.00;100781.94;5113149;28;20379;-80
2023/12/01 05:05:40;;;;;;;66.70;17.33;;;;;;;-2.36;100.00;100782.84;5113082;28;20023;-80
2023/12/01 05:08:07;;;;;;;60.03;16.33;;;;;;;-2.33;100.00;100787.94;5093928;28;20486;-79
2023/12/01 05:10:35;;;;;;;74.85;17.50;;;;;;;-2.32;100.00;100789.66;5113062;28;20123;-79
2023/12/01 05:13:02;;;;;;;68.38;17.98;;;;;;;-2.31;100.00;100791.38;5112467;28;20032;-80
2023/12/01 05:15:30;;;;;;;59.03;16.40;;;;;;;-2.31;100.00;100789.59;5112633;28;20131;-79
2023/12/01 05:17:59;;;;;;;64.40;17.33;;;;;;;-2.29;100.00;100797.34;5112194;28;20031;-80
2023/12/01 05:20:27;;;;;;;74.45;19.55;;;;;;;-2.27;100.00;100797.28;5112706;28;20084;-79
2023/12/01 05:22:54;;;;;;;68.93;17.58;;;;;;;-2.26;100.00;100799.84;5112315;28;20078;-80
2023/12/01 05:25:21;;;;;;;57.97;17.00;;;;;;;-2.24;100.00;100798.03;5112640;28;20028;-79
2023/12/01 05:27:49;;;;;;;65.13;16.88;;;;;;;-2.22;100.00;100798.00;5094101;28;20028;-78
2023/12/01 05:30:16;;;;;;;63.05;17.17;;;;;;;-2.21;100.00;100797.94;5112653;28;20110;-79
2023/12/01 05:32:48;;;;;;;63.75;16.70;;;;;;;-2.19;100.00;100798.72;5112370;28;20032;-79
2023/12/01 05:35:14;;;;;;;48.25;16.42;;;;;;;-2.20;100.00;100799.59;5093990;28;20114;-78
2023/12/01 05:37:48;;;;;;;55.17;17.27;;;;;;;-2.21;100.00;100805.75;5111988;28;20092;-80
2023/12/01 05:40:15;;;;;;;61.55;16.80;;;;;;;-2.20;100.00;100807.44;5112685;28;20023;-81
2023/12/01 05:42:42;;;;;;;55.95;16.02;;;;;;;-2.20;100.00;100810.03;5112391;28;20218;-79
2023/12/01 05:45:11;;;;;;;61.13;17.67;;;;;;;-2.21;100.00;100805.75;5111615;28;20519;-79
2023/12/01 05:47:45;;;;;;;69.53;20.70;;;;;;;-2.23;100.00;100810.16;5112248;28;20031;-79
2023/12/01 05:50:20;;;;;;;80.53;22.08;;;;;;;-2.19;100.00;100818.72;5111891;28;20632;-79
2023/12/01 05:52:46;;;;;;;83.75;22.00;;;;;;;-2.20;100.00;100817.84;5094390;28;20359;-79
2023/12/01 05:55:16;;;;;;;86.85;22.27;;;;;;;-2.19;100.00;100822.16;5111492;28;20424;-79
2023/12/01 05:57:48;;;;;;;84.30;24.00;;;;;;;-2.20;100.00;100820.47;5112194;28;20036;-78
2023/12/01 06:00:20;;;;;;;72.85;21.65;;;;;;;-2.22;100.00;100822.28;5111744;28;20031;-77
2023/12/01 06:02:46;;;;;;;68.63;21.35;;;;;;;-2.20;100.00;100827.44;5112325;28;20450;-78
2023/12/01 06:05:16;;;;;;;75.28;21.77;;;;;;;-2.16;100.00;100826.44;5093371;28;20383;-78
2023/12/01 06:07:43;;;;;;;79.70;22.55;;;;;;;-2.19;100.00;100827.38;5112370;28;20031;-78
2023/12/01 06:10:10;;;;;;;71.00;21.50;;;;;;;-2.17;100.00;100827.31;5111236;28;20108;-79
2023/12/01 06:12:39;;;;;;;88.00;22.30;;;;;;;-2.15;100.00;100828.97;5112025;28;20031;-78
2023/12/01 06:15:07;;;;;;;77.95;23.00;;;;;;;-2.13;100.00;100831.53;5111618;28;20028;-79
2023/12/01 06:17:32;;;;;;;78.70;22.98;;;;;;;-2.11;100.00;100831.47;5110930;28;20139;-78
2023/12/01 06:19:57;;;;;;;81.70;23.48;;;;;;;-2.11;100.00;100829.69;5111577;28;20027;-79
2023/12/01 06:22:23;;;;;;;73.05;22.20;;;;;;;-2.08;100.00;100833.97;5111974;28;20356;-79
2023/12/01 06:24:49;;;;;;;65.30;22.08;;;;;;;-2.07;100.00;100840.88;5111987;28;20178;-79
2023/12/01 06:27:14;;;;;;;72.53;22.42;;;;;;;-2.07;100.00;100838.28;5111312;28;20039;-78
2023/12/01 06:29:40;;;;;;;75.35;22.00;;;;;;;-2.09;100.00;100837.47;5111985;28;20027;-78
2023/12/01 06:32:05;;;;;;;67.07;22.27;;;;;;;-2.10;100.00;100841.00;5112426;28;20031;-79
2023/12/01 06:34:31;;;;;;;75.25;23.73;;;;;;;-2.07;100.00;100836.50;5112590;28;20040;-79
2023/12/01 06:36:59;;;;;;;77.88;22.15;;;;;;;-2.08;100.00;100829.56;5112089;28;20028;-81
2023/12/01 06:39:25;;;;;;;68.95;20.45;;;;;;;-2.05;100.00;100828.63;5112437;28;20024;-79
2023/12/01 06:41:53;;;;;;;77.70;21.88;;;;;;;-2.02;100.00;100828.50;5094116;28;20034;-79
2023/12/01 06:44:18;;;;;;;67.60;21.35;;;;;;;-2.01;100.00;100838.03;5111896;28;20084;-78
2023/12/01 06:46:43;;;;;;;70.10;21.08;;;;;;;-2.01;100.00;100841.47;5112306;28;20464;-79
2023/12/01 06:49:09;;;;;;;69.90;20.75;;;;;;;-1.98;100.00;100835.31;5111864;28;20031;-79
2023/12/01 06:51:34;;;;;;;77.13;21.15;;;;;;;-2.01;100.00;100836.25;5116057;28;20030;-79
2023/12/01 06:53:59;;;;;;;68.22;20.35;;;;;;;-2.00;100.00;100840.59;5115515;28;20019;-79
2023/12/01 06:56:25;;;;;;;66.30;20.50;;;;;;;-1.99;100.00;100846.63;5115890;28;20047;-78
2023/12/01 06:58:50;;;;;;;60.65;20.23;;;;;;;-1.96;100.00;100849.13;5115775;28;20416;-79
2023/12/01 07:01:18;;;;;;;64.47;19.45;;;;;;;-1.96;100.00;100852.59;5097357;28;20119;-79
2023/12/01 07:03:47;;;;;;;66.07;20.45;;;;;;;-1.96;100.00;100850.00;5115767;28;20147;-78
2023/12/01 07:06:13;;;;;;;66.70;20.90;;;;;;;-1.96;100.00;100857.81;5115512;28;20131;-78
2023/12/01 07:08:40;;;;;;;68.85;19.75;;;;;;;-1.94;100.00;100862.97;5115964;28;20028;-78
2023/12/01 07:11:06;;;;;;;69.07;21.40;;;;;;;-1.93;100.00;100856.00;5115109;28;20041;-79
2023/12/01 07:13:31;;;;;;;59.70;19.67;;;;;;;-1.92;100.00;100862.91;5097057;28;20082;-79
2023/12/01 07:15:57;;;;;;;69.05;19.55;;;;;;;-1.93;100.00;100858.59;5115313;28;20024;-79
2023/12/01 07:18:23;;;;;;;54.00;18.17;;;;;;;-1.92;100.00;100870.75;5114470;28;20352;-78
2023/12/01 07:20:49;;;;;;;73.90;20.98;;;;;;;-1.93;100.00;100862.03;5115316;28;20019;-78
2023/12/01 07:23:17;;;;;;;56.10;19.15;;;;;;;-1.93;100.00;100869.88;5115157;28;20099;-78
2023/12/01 07:25:47;;;;;;;55.97;18.35;;;;;;;-1.94;100.00;100865.59;5115548;28;20027;-78
2023/12/01 07:28:12;;;;;;;60.28;19.35;;;;;;;-1.93;100.00;100872.47;5115046;28;20418;-78
2023/12/01 07:30:40;;;;;;;60.92;19.33;;;;;;;-1.92;100.00;100870.75;5115467;28;20032;-78
2023/12/01 07:33:06;;;;;;;61.55;19.38;;;;;;;-1.93;100.00;100869.88;5115066;28;20046;-79
2023/12/01 07:35:31;;;;;;;59.65;18.80;;;;;;;-1.97;100.00;100866.53;5115312;28;20463;-78
2023/12/01 07:37:57;;;;;;;58.97;18.77;;;;;;;-1.98;100.00;100864.84;5114893;28;20042;-78
2023/12/01 07:40:23;;;;;;;56.50;18.77;;;;;;;-1.97;100.00;100871.75;5114234;28;20028;-77
2023/12/01 07:42:50;;;;;;;57.40;18.63;;;;;;;-1.96;100.00;100870.84;5114750;28;20023;-77
2023/12/01 07:45:19;;;;;;;51.42;17.42;;;;;;;-1.95;100.00;100875.16;5114249;28;20110;-79
2023/12/01 07:47:49;;;;;;;55.95;18.35;;;;;;;-1.92;100.00;100875.97;5114342;28;20470;-78
2023/12/01 07:50:16;;;;;;;54.90;18.40;;;;;;;-1.90;100.00;100882.78;5114357;28;20033;-79
2023/12/01 07:52:44;;;;;;;58.00;18.70;;;;;;;-1.88;100.00;100883.59;5115097;28;20023;-77
2023/12/01 07:55:10;;;;;;;56.78;17.58;;;;;;;-1.88;100.00;100880.13;5096466;28;20481;-79
2023/12/01 07:57:36;;;;;;;60.15;18.98;;;;;;;-1.82;100.00;100885.09;5115210;28;20118;-78
2023/12/01 08:00:02;;;;;;;52.75;17.90;;;;;;;-1.81;100.00;100885.06;5114342;28;20027;-80
2023/12/01 08:02:28;;;;;;;52.72;17.15;;;;;;;-1.82;100.00;100885.97;5113312;28;20319;-79
2023/12/01 08:04:53;;;;;;;52.30;17.63;;;;;;;-1.81;100.00;100889.44;5114658;28;20039;-80
2023/12/01 08:07:19;;;;;;;52.75;18.30;;;;;;;-1.81;100.00;100890.28;5108911;28;20031;-78
2023/12/01 08:09:44;;;;;;;50.67;17.67;;;;;;;-1.82;100.00;100885.97;5111330;28;20126;-79
2023/12/01 08:12:09;;;;;;;52.10;17.05;;;;;;;-1.79;100.00;100896.28;5111045;28;20087;-81
2023/12/01 08:14:35;;;;;;;56.70;18.60;;;;;;;-1.75;100.00;100893.56;5111057;28;20353;-80
2023/12/01 08:17:00;;;;;;;51.45;17.10;;;;;;;-1.72;100.00;100886.44;5092791;28;20130;-78
2023/12/01 08:19:25;;;;;;;53.92;18.52;;;;;;;-1.69;100.00;100895.94;5110671;28;20026;-78
2023/12/01 08:21:51;;;;;;;53.58;17.77;;;;;;;-1.67;100.00;100894.09;5111377;28;20108;-79
2023/12/01 08:24:20;;;;;;;55.35;17.08;;;;;;;-1.65;100.00;100889.69;5110831;28;20376;-78
2023/12/01 08:26:46;;;;;;;60.20;18.90;;;;;;;-1.63;100.00;100888.72;5110892;28;20036;-79
2023/12/01 08:29:12;;;;;;;51.13;17.27;;;;;;;-1.60;100.00;100896.44;5110430;28;20160;-83
2023/12/01 08:31:39;;;;;;;53.28;17.25;;;;;;;-1.56;100.00;100889.31;5111494;28;20130;-80
2023/12/01 08:34:07;;;;;;;47.83;16.98;;;;;;;-1.51;100.00;100889.16;5111678;28;20099;-80
2023/12/01 08:36:34;;;;;;;48.63;17.90;;;;;;;-1.48;100.00;100891.63;5111073;28;20031;-82
2023/12/01 08:38:59;;;;;;;50.33;17.13;;;;;;;-1.44;100.00;100890.59;5111431;28;20033;-79
2023/12/01 08:41:25;;;;;;;48.22;17.38;;;;;;;-1.41;100.00;100893.09;5110774;28;20324;-83
2023/12/01 08:43:50;;;;;;;45.33;16.40;;;;;;;-1.40;100.00;100889.59;5111776;28;20544;-82
2023/12/01 08:46:16;;;;;;;42.05;17.35;;;;;;;-1.36;100.00;100888.53;5111128;28;20023;-77
2023/12/01 08:48:41;;;;;;;48.38;18.08;;;;;;;-1.33;100.00;100893.66;5111483;28;20070;-81
2023/12/01 08:51:07;;;;;;;50.50;18.23;;;;;;;-1.32;100.00;100897.94;5111529;28;20135;-83
2023/12/01 08:53:32;;;;;;;48.78;17.75;;;;;;;-1.31;100.00;100899.66;5110770;28;20031;-79
2023/12/01 08:55:57;;;;;;;46.35;17.70;;;;;;;-1.25;100.00;100907.22;5111166;28;20450;-81
2023/12/01 08:58:24;;;;;;;50.42;19.08;;;;;;;-1.16;100.00;100907.78;5110618;28;20036;-77
2023/12/01 09:00:49;;;;;;;43.83;17.42;;;;;;;-1.10;100.00;100904.91;5108751;27;20032;-81
2023/12/01 09:03:15;;;;;;;48.00;16.33;;;;;;;-1.03;100.00;100909.00;5108336;27;20087;-78
2023/12/01 09:05:41;;;;;;;44.88;16.88;;;;;;;-0.96;100.00;100909.56;5113556;28;20478;-80
2023/12/01 09:08:07;;;;;;;49.95;16.02;;;;;;;-0.91;100.00;100910.22;5113996;28;20059;-80
2023/12/01 09:10:32;;;;;;;43.22;15.95;;;;;;;-0.85;100.00;100912.59;5113093;28;20131;-79
2023/12/01 09:12:58;;;;;;;37.17;15.73;;;;;;;-0.80;100.00;100913.25;5112888;28;20055;-78
2023/12/01 09:15:23;;;;;;;45.65;16.80;;;;;;;-0.74;100.00;100915.59;5112659;28;20378;-84
2023/12/01 09:17:49;;;;;;;45.92;17.42;;;;;;;-0.70;100.00;100921.56;5113547;28;20034;-80
2023/12/01 09:20:14;;;;;;;43.28;17.33;;;;;;;-0.70;100.00;100921.56;5095072;28;20024;-80
2023/12/01 09:22:40;;;;;;;47.88;16.67;;;;;;;-0.74;100.00;100927.81;5113156;28;20062;-79
2023/12/01 09:25:06;;;;;;;45.05;17.33;;;;;;;-0.77;100.00;100925.34;5113504;28;20122;-80
2023/12/01 09:27:32;;;;;;;41.70;16.77;;;;;;;-0.78;100.00;100926.25;5112889;28;20067;-79
2023/12/01 09:29:57;;;;;;;44.58;15.15;;;;;;;-0.74;100.00;100930.44;5113214;28;20086;-79
2023/12/01 09:32:22;;;;;;;39.95;16.38;;;;;;;-0.64;100.00;100929.13;5112902;28;20055;-80
2023/12/01 09:34:48;;;;;;;42.47;15.27;;;;;;;-0.59;100.00;100928.94;5113240;28;20024;-80
2023/12/01 09:37:14;;;;;;;43.95;15.85;;;;;;;-0.53;100.00;100944.34;5094820;28;20040;-80
2023/12/01 09:39:40;;;;;;;41.45;16.25;;;;;;;-0.48;100.00;100936.31;5112777;28;20106;-81
2023/12/01 09:42:06;;;;;;;36.53;14.32;;;;;;;-0.45;100.00;100939.66;5113088;28;20027;-81
2023/12/01 09:44:42;;;;;;;39.88;14.75;;;;;;;-0.31;100.00;100944.28;5094378;28;20078;-81
2023/12/01 09:47:10;;;;;;;40.60;15.68;;;;;;;-0.17;100.00;100946.28;5094612;28;20064;-81
2023/12/01 09:49:37;;;;;;;35.10;13.68;;;;;;;-0.09;100.00;100938.97;5112090;28;20069;-79
2023/12/01 09:52:03;;;;;;;32.55;14.32;;;;;;;-0.11;100.00;100942.56;5113011;28;20028;-78
2023/12/01 09:54:30;;;;;;;37.88;13.32;;;;;;;-0.08;100.00;100945.03;5093939;28;20043;-78
2023/12/01 09:57:03;;;;;;;36.85;14.50;;;;;;;-0.02;100.00;100947.38;5112778;28;20031;-77
2023/12/01 09:59:29;;;;;;;33.88;14.10;;;;;;;0.07;100.00;100948.75;5112785;28;20032;-79
2023/12/01 10:01:55;;;;;;;29.88;13.07;;;;;;;0.12;100.00;100946.75;5113020;28;20161;-80
2023/12/01 10:04:20;;;;;;;37.83;15.13;;;;;;;0.11;100.00;100947.69;5112889;28;20133;-79
2023/12/01 10:06:47;;;;;;;32.70;13.43;;;;;;;0.01;100.00;100942.00;5112565;28;20108;-81
2023/12/01 10:09:24;;;;;;;29.15;13.30;;;;;;;0.01;100.00;100949.00;5112595;28;20034;-81
2023/12/01 10:12:06;;;;;;;33.25;12.93;;;;;;;0.02;100.00;100946.34;5112797;28;20459;-82
2023/12/01 10:14:32;;;;;;;27.80;13.10;;;;;;;0.04;100.00;100946.25;5112213;28;20028;-85
2023/12/01 10:17:02;;;;;;;35.55;13.68;;;;;;;0.01;100.00;100939.38;5113149;28;20035;-85
2023/12/01 10:19:30;;;;;;;35.47;12.68;;;;;;;-0.02;100.00;100939.53;5112010;28;20479;-85
2023/12/01 10:21:56;;;;;;;35.97;14.05;;;;;;;-0.03;100.00;100940.44;5112592;28;20037;-83
2023/12/01 10:24:22;;;;;;;28.60;12.13;;;;;;;-0.02;100.00;100945.59;5114587;28;20024;-84
2023/12/01 10:26:52;;;;;;;32.45;14.25;;;;;;;-0.10;100.00;100947.72;5116322;28;20495;-83
2023/12/01 10:29:30;;;;;;;29.33;13.63;;;;;;;-0.25;100.00;100945.78;5099300;28;20423;-82
2023/12/01 10:31:57;;;;;;;32.55;14.20;;;;;;;-0.42;100.00;100947.38;5117110;28;20027;-81
2023/12/01 10:34:22;;;;;;;34.28;13.75;;;;;;;-0.51;100.00;100944.28;5117160;28;20031;-82
2023/12/01 10:36:48;;;;;;;37.97;14.15;;;;;;;-0.51;100.00;100944.28;5116346;28;20034;-83
2023/12/01 10:39:16;;;;;;;34.67;15.07;;;;;;;-0.44;100.00;100946.56;5116869;28;20027;-83
2023/12/01 10:41:44;;;;;;;39.33;13.02;;;;;;;-0.27;100.00;100948.47;5081055;28;20059;-83
2023/12/01 10:44:16;;;;;;;25.55;11.95;;;;;;;0.04;100.00;100947.09;5116774;28;20066;-84
2023/12/01 10:46:47;;;;;;;28.88;12.23;;;;;;;0.29;100.00;100943.38;5115937;28;20027;-84
2023/12/01 10:49:15;;;;;;;29.33;13.23;;;;;;;0.54;100.00;100940.47;5116736;28;20115;-83
2023/12/01 10:51:41;;;;;;;31.73;13.50;;;;;;;0.66;100.00;100942.50;5115855;28;20019;-84
2023/12/01 10:54:10;;;;;;;33.63;13.85;;;;;;;0.71;100.00;100937.06;5116436;28;20440;-83
2023/12/01 10:56:48;;;;;;;34.97;13.45;;;;;;;0.71;100.00;100937.06;5115806;28;20061;-84
2023/12/01 10:59:18;;;;;;;30.10;12.68;;;;;;;0.75;100.00;100935.13;5116509;28;20459;-82
2023/12/01 11:01:49;;;;;;;28.83;13.57;;;;;;;0.81;100.00;100940.94;5116268;28;20024;-84